Nearby METAR Reports

 

KLXT - Lees Summit Muni, Missouri, USA
Distance from station: E 5mi, 9km
Updated: Fri, 31-Oct-2014 10:53am CDT
Clear
Clear
 Wind from N
Wind: N 16 mph , 26 km/h
Temperature: 37°F , 3°C
Wind Chill: 28°F , -2°C
Dew Point: 19°F , -7°C
Humidity: 48%
Barometer: 30.49 inHg , 1032.5 hPa
Clouds: Clear
Visibility: 10 miles , 16 km
2014/10/31 15:53 KLXT 311553Z AUTO 36014KT 10SM CLR 03/M07 A3049 RMK AO2 SLP328 T00331072
KMKC - Kansas City/Dntn, Missouri, USA
Distance from station: NW 12mi, 19km
Updated: Fri, 31-Oct-2014 10:54am CDT
Clear
Clear
 Wind from NNE
Wind: NNE 12 mph , 19 km/h
Temperature: 39°F , 4°C
Wind Chill: 32°F , 0°C
Dew Point: 19°F , -7°C
Humidity: 45%
Barometer: 30.51 inHg , 1033.2 hPa
Clouds: Clear
Visibility: 10 miles , 16 km
2014/10/31 15:54 KMKC 311554Z 02010KT 10SM CLR 04/M07 A3051 RMK AO2 SLP332 T00441072
 
KIXD - Olathe/Industria, Kansas, USA
Distance from station: WSW 25mi, 41km
Updated: Fri, 31-Oct-2014 10:53am CDT
Clear
Clear
 Wind from N
Wind: N 21 mph , 33 km/h, Gust: 28 mph , 44 km/h
Temperature: 37°F , 3°C
Wind Chill: 26°F , -3°C
Dew Point: 19°F , -7°C
Humidity: 48%
Barometer: 30.49 inHg , 1032.5 hPa
Clouds: Clear
Visibility: 10 miles , 16 km
2014/10/31 15:53 KIXD 311553Z 01018G24KT 10SM CLR 03/M07 A3049 RMK AO2 PK WND 36026/1513 SLP329 T00281072
KMCI - Kansas City/Intl, Missouri, USA
Distance from station: NW 26mi, 42km
Updated: Fri, 31-Oct-2014 10:53am CDT
Clear
Clear
 Wind from N
Wind: N 16 mph , 26 km/h, Gust: 24 mph , 39 km/h
Temperature: 37°F , 3°C
Wind Chill: 28°F , -2°C
Dew Point: 19°F , -7°C
Humidity: 48%
Barometer: 30.50 inHg , 1032.8 hPa
Clouds: Clear
Visibility: 10 miles , 16 km
2014/10/31 15:53 KMCI 311553Z 01014G21KT 10SM CLR 03/M07 A3050 RMK AO2 SLP331 T00281067
 
KRCM - Warrensburg Skyh, Missouri, USA
Distance from station: ESE 38mi, 62km
Updated: Fri, 31-Oct-2014 10:55am CDT
Clear
Clear
 Wind from NNW
Wind: NNW 15 mph , 24 km/h, Gust: 21 mph , 33 km/h
Temperature: 41°F , 5°C
Wind Chill: 33°F , 1°C
Dew Point: 19°F , -7°C
Humidity: 42%
Barometer: 30.46 inHg , 1031.5 hPa
Clouds: Clear
Visibility: 10 miles , 16 km
2014/10/31 15:55 KRCM 311555Z AUTO 33013G18KT 10SM CLR 05/M07 A3046 RMK AO2
KLWC - Lawrence, Kansas, USA
Distance from station: W 40mi, 65km
Updated: Fri, 31-Oct-2014 10:52am CDT
Clear
Clear
 Wind from N
Wind: N 15 mph , 24 km/h, Gust: 21 mph , 33 km/h
Temperature: 37°F , 3°C
Wind Chill: 28°F , -2°C
Dew Point: 19°F , -7°C
Humidity: 48%
Barometer: 30.52 inHg , 1033.5 hPa
Clouds: Clear
Visibility: 9 miles , 14 km
2014/10/31 15:52 KLWC 311552Z AUTO 36013G18KT 9SM CLR 03/M07 A3052 RMK AO2 SNE51 SLP338 P0000 T00331072
 
KSZL - Whiteman Afb, Missouri, USA
Distance from station: ESE 53mi, 86km
Updated: Fri, 31-Oct-2014 10:58am CDT
Clear
Clear
 Wind from N
Wind: N 17 mph , 28 km/h, Gust: 29 mph , 46 km/h
Temperature: 39°F , 4°C
Wind Chill: 30°F , -1°C
Dew Point: 19°F , -7°C
Humidity: 45%
Barometer: 30.44 inHg , 1030.8 hPa
Clouds: Clear
Visibility: 8 miles , 13 km
2014/10/31 15:58 KSZL 311558Z AUTO 01015G25KT 8SM CLR 04/M07 A3044 RMK AO2 SLP314 T00421075 $
KSTJ - St. Joseph, Missouri, USA
Distance from station: NNW 59mi, 95km
Updated: Fri, 31-Oct-2014 10:53am CDT
Clear
Clear
 Wind from N
Wind: N 12 mph , 19 km/h
Temperature: 37°F , 3°C
Wind Chill: 29°F , -2°C
Dew Point: 19°F , -7°C
Humidity: 48%
Barometer: 30.53 inHg , 1033.9 hPa
Clouds: Clear
Visibility: 10 miles , 16 km
2014/10/31 15:53 KSTJ 311553Z 36010KT 10SM CLR 03/M07 A3053 RMK AO2 SLP342 T00331072
 
KGLY - Clinton, Missouri, USA
Distance from station: SE 61mi, 98km
Updated: Fri, 31-Oct-2014 11:15am CDT
Clear
Clear
 Wind from N
Wind: N 17 mph , 28 km/h
Temperature: 43°F , 6°C
Wind Chill: 35°F , 2°C
Dew Point: 27°F , -3°C
Humidity: 53%
Barometer: 30.45 inHg , 1031.2 hPa
Clouds: Clear
Visibility: 10 miles , 16 km
2014/10/31 16:15 KGLY 311615Z AUTO 35015KT 10SM CLR 06/M03 A3045 RMK AO2
KFOE - Topeka/Forbes, Kansas, USA
Distance from station: W 64mi, 103km
Updated: Fri, 31-Oct-2014 10:53am CDT
Clear
Clear
 Wind from NNE
Wind: NNE 15 mph , 24 km/h
Temperature: 37°F , 3°C
Wind Chill: 28°F , -2°C
Dew Point: 18°F , -8°C
Humidity: 45%
Barometer: 30.51 inHg , 1033.2 hPa
Clouds: Clear
Visibility: 10 miles , 16 km
2014/10/31 15:53 KFOE 311553Z 03013KT 10SM CLR 03/M08 A3051 RMK AO2 SLP337 T00331078
 
KDMO - Sedalia, Missouri, USA
Distance from station: ESE 72mi, 116km
Updated: Fri, 31-Oct-2014 10:53am CDT
Light rain, Clear
Light rain, Clear
 Wind from N
Wind: N 16 mph , 26 km/h
Temperature: 41°F , 5°C
Wind Chill: 33°F , 1°C
Dew Point: 18°F , -8°C
Humidity: 39%
Barometer: 30.44 inHg , 1030.8 hPa
Summary: Light rain
Clouds: Clear
Visibility: 10 miles , 16 km
2014/10/31 15:53 KDMO 311553Z AUTO 36014KT 10SM -RA CLR 05/M08 A3044 RMK AO2 SLP311 P0000 T00501078
KCDJ - Chillicothe, Missouri, USA
Distance from station: NE 74mi, 120km
Updated: Fri, 31-Oct-2014 10:52am CDT

 Wind from N
Wind: N 9 mph , 15 km/h, Gust: 18 mph , 30 km/h
Temperature: 39°F , 4°C
Wind Chill: 33°F , 1°C
Dew Point: 19°F , -7°C
Humidity: 45%
Barometer: 30.49 inHg , 1032.5 hPa
2014/10/31 15:52 KCDJ 311552Z AUTO 35008G16KT 04/M07 A3049 RMK AO1 SLP330 T00391067
 
KFNB - Falls City/Brenn, Nebraska, USA
Distance from station: NW 96mi, 154km
Updated: Fri, 31-Oct-2014 10:53am CDT
Clear
Clear
 Wind from N
Wind: N 13 mph , 20 km/h, Gust: 22 mph , 35 km/h
Temperature: 37°F , 3°C
Wind Chill: 29°F , -2°C
Dew Point: 18°F , -8°C
Humidity: 45%
Barometer: 30.55 inHg , 1034.5 hPa
Clouds: Clear
Visibility: 10 miles , 16 km
2014/10/31 15:53 KFNB 311553Z AUTO 36011G19KT 10SM CLR 03/M08 A3055 RMK AO2 SLP350 T00281078
KVER - Boonville, Missouri, USA
Distance from station: E 96mi, 154km
Updated: Fri, 31-Oct-2014 10:55am CDT
Clear
Clear
 Wind from NNW
Wind: NNW 15 mph , 24 km/h, Gust: 22 mph , 35 km/h
Temperature: 39°F , 4°C
Wind Chill: 31°F , -1°C
Dew Point: 18°F , -8°C
Humidity: 42%
Barometer: 30.41 inHg , 1029.8 hPa
Clouds: Clear
Visibility: 10 miles , 16 km
2014/10/31 15:55 KVER 311555Z AUTO 33013G19KT 10SM CLR 04/M08 A3041 RMK AO2 T00411079